Time;durP1;ratioP1;P1;durP2;ratioP2;P2;SDS_P1;SDS_P2;PMS_P1;PMS_P2;Temp;Humidity;BMP_temperature;BMP_pressure;BME280_temperature;BME280_humidity;BME280_pressure;Samples;Min_cycle;Max_cycle;Signal;HPM_P1;HPM_P2
2022/05/20 00:02:16;;;;;;;39.60;31.88;;;15.30;99.90;;;;;;5015937;28;20045;-62
2022/05/20 00:04:43;;;;;;;36.35;30.35;;;15.20;99.90;;;;;;5016770;28;20040;-62
2022/05/20 00:07:09;;;;;;;32.70;28.85;;;15.20;99.90;;;;;;5016877;28;20445;-63
2022/05/20 00:09:36;;;;;;;37.28;30.95;;;15.10;99.90;;;;;;5017975;28;20033;-63
2022/05/20 00:12:04;;;;;;;38.53;31.25;;;15.10;99.90;;;;;;5020429;28;20291;-63
2022/05/20 00:14:34;;;;;;;40.13;30.85;;;15.10;99.90;;;;;;5020447;28;20034;-64
2022/05/20 00:17:05;;;;;;;35.13;30.08;;;15.10;99.90;;;;;;5020376;28;20424;-63
2022/05/20 00:19:32;;;;;;;40.33;32.03;;;15.00;99.90;;;;;;5020213;28;20290;-63
2022/05/20 00:21:58;;;;;;;42.13;31.98;;;15.00;99.90;;;;;;5019631;28;20032;-63
2022/05/20 00:24:24;;;;;;;41.17;34.10;;;15.10;99.90;;;;;;5020255;28;20105;-63
2022/05/20 00:26:50;;;;;;;37.67;31.20;;;15.20;99.90;;;;;;5020179;28;20057;-63
2022/05/20 00:29:17;;;;;;;43.00;33.33;;;15.10;99.90;;;;;;5019402;28;20068;-63
2022/05/20 00:31:44;;;;;;;41.47;34.22;;;15.00;99.90;;;;;;5019405;28;20345;-63
2022/05/20 00:34:10;;;;;;;49.65;37.22;;;15.20;99.90;;;;;;5020066;28;20409;-63
2022/05/20 00:36:36;;;;;;;44.90;36.83;;;15.20;99.90;;;;;;5019213;28;20402;-64
2022/05/20 00:39:02;;;;;;;41.63;34.28;;;15.30;99.90;;;;;;5003028;28;20069;-63
2022/05/20 00:41:28;;;;;;;40.95;33.78;;;15.20;99.90;;;;;;5019894;28;20350;-63
2022/05/20 00:43:54;;;;;;;41.10;33.42;;;15.00;99.90;;;;;;5019847;28;20034;-63
2022/05/20 00:46:25;;;;;;;41.13;31.88;;;14.90;99.90;;;;;;5019778;28;20470;-64
2022/05/20 00:49:10;;;;;;;44.60;35.05;;;14.90;99.90;;;;;;5019718;28;20049;-63
2022/05/20 00:51:41;;;;;;;39.15;32.05;;;15.00;99.90;;;;;;5019713;28;20038;-63
2022/05/20 00:54:18;;;;;;;46.72;35.78;;;15.00;99.90;;;;;;5020328;28;20096;-63
2022/05/20 00:56:48;;;;;;;41.95;35.15;;;15.00;99.90;;;;;;5019660;28;20038;-64
2022/05/20 00:59:19;;;;;;;43.22;33.25;;;15.00;99.90;;;;;;5019303;28;20289;-63
2022/05/20 01:01:47;;;;;;;40.38;33.47;;;14.90;99.90;;;;;;5019508;28;20386;-64
2022/05/20 01:04:18;;;;;;;38.67;32.72;;;14.80;99.90;;;;;;5018686;28;20046;-64
2022/05/20 01:06:45;;;;;;;37.97;32.55;;;14.80;99.90;;;;;;5019388;28;20034;-64
2022/05/20 01:09:11;;;;;;;39.90;31.90;;;14.80;99.90;;;;;;5019506;28;20441;-64
2022/05/20 01:11:39;;;;;;;36.67;31.48;;;14.80;99.90;;;;;;5018605;28;20091;-63
2022/05/20 01:14:05;;;;;;;44.80;32.40;;;14.70;99.90;;;;;;5018553;28;20029;-64
2022/05/20 01:16:33;;;;;;;41.97;32.13;;;14.70;99.90;;;;;;5019209;28;20041;-64
2022/05/20 01:19:01;;;;;;;40.80;33.22;;;14.70;99.90;;;;;;5019402;28;20306;-64
2022/05/20 01:21:27;;;;;;;42.60;33.55;;;14.80;99.90;;;;;;5017477;28;20045;-63
2022/05/20 01:23:59;;;;;;;40.30;32.72;;;14.70;99.90;;;;;;5018447;28;20037;-64
2022/05/20 01:26:25;;;;;;;40.85;32.17;;;14.70;99.90;;;;;;5018448;28;20034;-63
2022/05/20 01:28:51;;;;;;;37.75;31.23;;;14.70;99.90;;;;;;5019049;28;20409;-63
2022/05/20 01:31:17;;;;;;;40.83;32.20;;;14.70;99.90;;;;;;5018260;28;20117;-64
2022/05/20 01:33:46;;;;;;;43.00;32.75;;;14.70;99.90;;;;;;5018886;28;20034;-64
2022/05/20 01:36:17;;;;;;;38.80;31.48;;;14.70;99.90;;;;;;5018885;28;20069;-63
2022/05/20 01:38:44;;;;;;;37.95;32.58;;;14.70;99.90;;;;;;5018833;28;20029;-64
2022/05/20 01:41:18;;;;;;;42.47;32.55;;;14.70;99.90;;;;;;5018741;28;20033;-63
2022/05/20 01:44:12;;;;;;;39.15;31.52;;;14.70;99.90;;;;;;5019377;28;20033;-63
2022/05/20 01:47:03;;;;;;;36.38;31.67;;;14.70;99.90;;;;;;5017955;28;20041;-64
2022/05/20 01:49:57;;;;;;;43.83;33.05;;;14.70;99.90;;;;;;5017921;28;20291;-63
2022/05/20 01:52:50;;;;;;;40.45;33.20;;;14.70;99.90;;;;;;5017865;28;20030;-64
2022/05/20 01:55:31;;;;;;;41.55;32.28;;;14.70;99.90;;;;;;5018565;28;20120;-64
2022/05/20 01:58:14;;;;;;;46.80;34.45;;;14.70;99.90;;;;;;5018491;28;20038;-64
2022/05/20 02:00:41;;;;;;;44.33;34.00;;;14.60;99.90;;;;;;5017620;28;20057;-64
2022/05/20 02:03:22;;;;;;;44.92;34.67;;;14.60;99.90;;;;;;5017707;28;20056;-64
2022/05/20 02:05:57;;;;;;;44.47;36.22;;;14.60;99.90;;;;;;5018356;28;20033;-64
2022/05/20 02:08:31;;;;;;;45.90;36.30;;;14.50;99.90;;;;;;5018808;28;20037;-64
2022/05/20 02:11:10;;;;;;;47.20;36.20;;;14.50;99.90;;;;;;5017497;28;20037;-63
2022/05/20 02:13:40;;;;;;;53.92;39.97;;;14.50;99.90;;;;;;5018154;28;20036;-63
2022/05/20 02:16:14;;;;;;;57.03;40.80;;;14.40;99.90;;;;;;5018671;28;20026;-63
2022/05/20 02:18:51;;;;;;;45.58;36.58;;;14.50;99.90;;;;;;5017311;28;20028;-64
2022/05/20 02:21:22;;;;;;;49.17;37.50;;;14.50;99.90;;;;;;5018047;28;20030;-64
2022/05/20 02:23:55;;;;;;;46.95;37.70;;;14.50;99.90;;;;;;5018102;28;20101;-64
2022/05/20 02:26:26;;;;;;;45.88;36.70;;;14.50;99.90;;;;;;5017285;28;20133;-63
2022/05/20 02:28:59;;;;;;;48.00;36.60;;;14.50;99.90;;;;;;5017965;28;20072;-64
2022/05/20 02:31:48;;;;;;;50.17;37.03;;;14.50;99.90;;;;;;5017929;28;20034;-63
2022/05/20 02:34:13;;;;;;;47.08;36.55;;;14.50;99.90;;;;;;5017576;28;20033;-63
2022/05/20 02:36:40;;;;;;;49.95;38.50;;;14.50;99.90;;;;;;5000715;28;20045;-63
2022/05/20 02:39:14;;;;;;;46.85;36.22;;;14.60;99.90;;;;;;5000599;28;20061;-64
2022/05/20 02:41:49;;;;;;;47.35;36.10;;;14.70;99.90;;;;;;5017841;28;20025;-64
2022/05/20 02:44:16;;;;;;;45.67;34.85;;;14.60;99.90;;;;;;5018006;28;20041;-64
2022/05/20 02:46:46;;;;;;;44.22;34.25;;;14.60;99.90;;;;;;5016975;28;20064;-64
2022/05/20 02:49:13;;;;;;;42.25;35.70;;;14.70;99.90;;;;;;5018177;28;20141;-64
2022/05/20 02:51:38;;;;;;;43.67;33.88;;;14.80;99.90;;;;;;5017520;28;20048;-64
2022/05/20 02:54:05;;;;;;;43.38;34.67;;;14.80;99.90;;;;;;5017773;28;20413;-64
2022/05/20 02:56:32;;;;;;;40.95;34.20;;;14.90;99.90;;;;;;5017424;28;20045;-64
2022/05/20 03:04:26;;;;;;;44.13;33.92;;;15.00;99.90;;;;;;5016640;28;20030;-64
2022/05/20 03:06:52;;;;;;;39.20;32.95;;;15.00;99.90;;;;;;5017392;28;20080;-64
2022/05/20 03:09:24;;;;;;;42.70;33.75;;;14.90;99.90;;;;;;5000529;28;20306;-64
2022/05/20 03:11:51;;;;;;;43.10;35.07;;;14.90;99.90;;;;;;5017265;28;20060;-64
2022/05/20 03:14:19;;;;;;;43.45;34.50;;;14.70;99.90;;;;;;5017262;28;20025;-64
2022/05/20 03:16:46;;;;;;;40.95;34.05;;;14.70;99.90;;;;;;5017468;28;20402;-63
2022/05/20 03:19:12;;;;;;;44.42;34.85;;;14.70;99.90;;;;;;5017010;28;20026;-66
2022/05/20 03:21:39;;;;;;;47.60;34.70;;;14.60;99.90;;;;;;5016446;28;20037;-64
2022/05/20 03:24:07;;;;;;;43.53;34.67;;;14.70;99.90;;;;;;5017132;28;20018;-63
2022/05/20 03:26:33;;;;;;;42.38;34.45;;;14.60;99.90;;;;;;5017124;28;20040;-64
2022/05/20 03:28:59;;;;;;;43.13;35.15;;;14.50;99.90;;;;;;5017126;28;20026;-64
2022/05/20 03:31:26;;;;;;;45.10;35.25;;;14.60;99.90;;;;;;5017002;28;20030;-64
2022/05/20 03:33:52;;;;;;;45.80;36.70;;;14.60;99.90;;;;;;5017059;28;20029;-64
2022/05/20 03:36:18;;;;;;;43.83;35.83;;;14.60;99.90;;;;;;5000021;28;20105;-63
2022/05/20 03:38:44;;;;;;;50.90;38.40;;;14.60;99.90;;;;;;5016218;28;20034;-63
2022/05/20 03:41:10;;;;;;;50.88;37.33;;;14.50;99.90;;;;;;5017188;28;20037;-64
2022/05/20 03:43:37;;;;;;;45.03;35.90;;;14.50;99.90;;;;;;5016233;28;20125;-63
2022/05/20 03:46:03;;;;;;;46.67;36.65;;;14.40;99.90;;;;;;5020638;28;20022;-63
2022/05/20 03:48:29;;;;;;;45.47;36.13;;;14.40;99.90;;;;;;5020108;28;20305;-63
2022/05/20 03:50:55;;;;;;;45.97;36.42;;;14.50;99.90;;;;;;5021334;28;20042;-63
2022/05/20 03:53:21;;;;;;;51.47;38.00;;;14.40;99.90;;;;;;5020844;28;20136;-63
2022/05/20 03:55:47;;;;;;;50.92;37.90;;;14.40;99.90;;;;;;5020743;28;20018;-63
2022/05/20 03:58:13;;;;;;;43.63;35.20;;;14.40;99.90;;;;;;5020640;28;20112;-64
2022/05/20 04:03:25;;;;;;;45.72;35.72;;;14.50;99.90;;;;;;5021066;28;20026;-64
2022/05/20 04:05:53;;;;;;;46.92;35.90;;;14.50;99.90;;;;;;5020608;28;20030;-63
2022/05/20 04:08:19;;;;;;;46.28;35.58;;;14.40;99.90;;;;;;5020540;28;20026;-64
2022/05/20 04:10:46;;;;;;;49.50;38.72;;;14.40;99.90;;;;;;5019693;28;20209;-63
2022/05/20 04:13:11;;;;;;;47.92;36.45;;;14.50;99.90;;;;;;5020482;28;20337;-63
2022/05/20 04:15:37;;;;;;;53.22;38.78;;;14.60;99.90;;;;;;5019554;28;20041;-63
2022/05/20 04:18:04;;;;;;;45.38;36.15;;;14.70;99.90;;;;;;5019328;28;20033;-63
2022/05/20 04:20:29;;;;;;;44.55;36.90;;;14.80;99.90;;;;;;5020355;28;20088;-63
2022/05/20 04:22:55;;;;;;;47.60;37.65;;;14.80;99.90;;;;;;5020226;28;20310;-63
2022/05/20 04:25:21;;;;;;;49.55;37.45;;;14.90;99.90;;;;;;5019553;28;20405;-63
2022/05/20 04:27:47;;;;;;;45.63;36.13;;;15.00;99.90;;;;;;5003070;28;20036;-63
2022/05/20 04:30:13;;;;;;;43.78;36.33;;;15.00;99.90;;;;;;5020090;28;20030;-63
2022/05/20 04:32:39;;;;;;;50.10;37.75;;;15.00;99.90;;;;;;5019440;28;20034;-63
2022/05/20 04:35:06;;;;;;;45.67;36.35;;;15.00;99.90;;;;;;5020023;28;20049;-63
2022/05/20 04:37:31;;;;;;;47.60;37.30;;;15.00;99.90;;;;;;5020571;28;20068;-63
2022/05/20 04:39:57;;;;;;;47.28;37.58;;;15.10;99.90;;;;;;5019153;28;20077;-63
2022/05/20 04:47:52;;;;;;;42.58;34.80;;;15.40;99.90;;;;;;5019735;28;20037;-64
2022/05/20 04:50:18;;;;;;;50.90;36.47;;;15.50;99.90;;;;;;5019683;28;20044;-64
2022/05/20 04:52:44;;;;;;;41.75;35.13;;;15.40;99.90;;;;;;5019638;28;20038;-63
2022/05/20 04:55:10;;;;;;;43.92;35.90;;;15.50;99.90;;;;;;5018932;28;20397;-65
2022/05/20 04:57:38;;;;;;;48.42;36.75;;;15.40;99.90;;;;;;5019514;28;20033;-64
2022/05/20 05:00:06;;;;;;;42.45;35.25;;;15.40;99.90;;;;;;5019208;28;20099;-65
2022/05/20 05:02:33;;;;;;;43.53;35.85;;;15.50;99.90;;;;;;5019451;28;20029;-66
2022/05/20 05:04:59;;;;;;;46.28;36.17;;;15.60;99.90;;;;;;5018785;28;20298;-66
2022/05/20 05:07:25;;;;;;;50.90;38.78;;;15.60;99.90;;;;;;5019411;28;20030;-63
2022/05/20 05:09:53;;;;;;;50.20;40.00;;;15.60;99.90;;;;;;5019345;28;20094;-63
2022/05/20 05:12:19;;;;;;;55.88;40.22;;;15.70;99.90;;;;;;5019272;28;20030;-64
2022/05/20 05:14:48;;;;;;;53.78;39.90;;;15.70;99.90;;;;;;5019318;28;20026;-63
2022/05/20 05:17:16;;;;;;;48.75;39.30;;;15.60;99.90;;;;;;5019260;28;20038;-63
2022/05/20 05:19:44;;;;;;;51.70;41.20;;;15.60;99.90;;;;;;5018187;28;20026;-65
2022/05/20 05:22:11;;;;;;;48.40;39.67;;;15.60;99.90;;;;;;5019147;28;20049;-64
2022/05/20 05:24:38;;;;;;;52.53;41.03;;;15.60;99.90;;;;;;5001975;28;20068;-64
2022/05/20 05:27:07;;;;;;;55.80;42.33;;;15.60;99.90;;;;;;5018376;28;20352;-63
2022/05/20 05:29:35;;;;;;;64.05;44.85;;;15.70;99.90;;;;;;5018923;28;20030;-63
2022/05/20 05:32:01;;;;;;;61.47;43.72;;;15.80;99.90;;;;;;5018156;28;20042;-63
2022/05/20 05:34:27;;;;;;;61.00;46.10;;;15.80;99.90;;;;;;5018930;28;20068;-63
2022/05/20 05:36:53;;;;;;;62.67;45.47;;;15.90;99.90;;;;;;5018785;28;20026;-63
2022/05/20 05:39:19;;;;;;;59.60;45.22;;;16.10;99.90;;;;;;5001811;28;20325;-63
2022/05/20 05:41:45;;;;;;;59.53;44.78;;;16.10;99.90;;;;;;5018651;28;20109;-63
2022/05/20 05:44:11;;;;;;;60.67;44.92;;;16.00;99.90;;;;;;5017974;28;20034;-63
2022/05/20 05:46:37;;;;;;;60.30;43.25;;;16.00;99.90;;;;;;5017958;28;20081;-65
2022/05/20 05:49:03;;;;;;;61.97;46.60;;;16.00;99.90;;;;;;5017965;28;20409;-65
2022/05/20 05:51:29;;;;;;;65.03;47.60;;;16.10;99.90;;;;;;5018663;28;20362;-65
2022/05/20 05:53:56;;;;;;;59.17;45.45;;;16.30;99.90;;;;;;5018556;28;20064;-65
2022/05/20 05:56:22;;;;;;;61.38;45.50;;;16.70;99.90;;;;;;5001708;28;20053;-63
2022/05/20 05:58:47;;;;;;;60.92;44.70;;;16.60;99.90;;;;;;5001403;28;20294;-65
2022/05/20 06:01:15;;;;;;;62.53;44.83;;;16.70;99.90;;;;;;5017569;28;20060;-64
2022/05/20 06:03:42;;;;;;;62.65;47.47;;;16.50;99.90;;;;;;5017667;28;20030;-64
2022/05/20 06:06:08;;;;;;;61.05;45.80;;;16.60;99.90;;;;;;5018317;28;20033;-63
2022/05/20 06:08:33;;;;;;;66.32;47.60;;;16.90;99.90;;;;;;5017850;28;20032;-62
2022/05/20 06:10:59;;;;;;;58.55;44.00;;;16.60;99.90;;;;;;5018221;28;20072;-64
2022/05/20 06:13:28;;;;;;;62.80;45.88;;;16.60;99.90;;;;;;5001756;28;20034;-61
2022/05/20 06:15:57;;;;;;;61.22;45.70;;;16.50;99.90;;;;;;5017960;28;20033;-62
2022/05/20 06:18:24;;;;;;;61.33;45.78;;;16.70;99.90;;;;;;5017781;28;20034;-63
2022/05/20 06:20:50;;;;;;;62.28;47.30;;;16.90;99.90;;;;;;5017896;28;20033;-63
2022/05/20 06:23:16;;;;;;;47.53;37.03;;;16.80;99.90;;;;;;5017255;28;20072;-65
2022/05/20 06:25:42;;;;;;;54.78;42.95;;;17.30;99.90;;;;;;5017871;28;20076;-64
2022/05/20 06:28:13;;;;;;;63.45;45.17;;;17.50;99.90;;;;;;5017145;28;20316;-66
2022/05/20 06:30:40;;;;;;;57.67;42.72;;;17.60;99.90;;;;;;5017850;28;20088;-65
2022/05/20 06:33:06;;;;;;;58.28;42.75;;;17.60;99.90;;;;;;5017111;28;20033;-66
2022/05/20 06:41:06;;;;;;;51.00;39.83;;;18.10;99.90;;;;;;5017721;28;20104;-64
2022/05/20 06:43:32;;;;;;;57.03;42.10;;;18.40;99.90;;;;;;5017546;28;20037;-64
2022/05/20 06:46:01;;;;;;;51.55;41.40;;;18.80;99.90;;;;;;5017896;28;20464;-64
2022/05/20 06:48:57;;;;;;;52.28;40.65;;;19.00;99.90;;;;;;5017540;28;20305;-64
2022/05/20 06:51:29;;;;;;;49.65;39.42;;;19.30;99.90;;;;;;5005399;28;20050;-64
2022/05/20 06:53:59;;;;;;;48.67;38.10;;;19.30;99.90;;;;;;5017921;28;20034;-64
2022/05/20 06:56:28;;;;;;;49.58;37.65;;;19.30;99.90;;;;;;5016641;28;20116;-64
2022/05/20 06:58:55;;;;;;;55.13;39.05;;;19.60;99.90;;;;;;5016419;28;20092;-64
2022/05/20 07:01:22;;;;;;;45.33;36.17;;;19.50;99.90;;;;;;5017436;28;20099;-65
2022/05/20 07:03:48;;;;;;;50.38;38.50;;;19.50;99.90;;;;;;5017066;28;20029;-63
2022/05/20 07:06:16;;;;;;;46.80;36.92;;;19.50;99.90;;;;;;5017313;28;20406;-64
2022/05/20 07:08:48;;;;;;;46.00;36.72;;;19.80;99.90;;;;;;5017243;28;20037;-64
2022/05/20 07:11:15;;;;;;;48.50;36.78;;;19.60;99.90;;;;;;5017326;28;20034;-64
2022/05/20 07:13:41;;;;;;;46.90;36.22;;;19.60;99.90;;;;;;5017209;28;20049;-65
2022/05/20 07:16:07;;;;;;;44.90;35.25;;;19.30;99.90;;;;;;5017228;28;20089;-65
2022/05/20 07:18:34;;;;;;;45.95;35.45;;;19.50;99.90;;;;;;5015708;28;20525;-64
2022/05/20 07:21:01;;;;;;;43.38;34.63;;;19.90;99.90;;;;;;5016292;28;20037;-64
2022/05/20 07:23:29;;;;;;;43.28;34.47;;;20.10;99.90;;;;;;5016401;28;20037;-64
2022/05/20 07:25:55;;;;;;;40.05;31.20;;;20.10;99.90;;;;;;5017237;28;20068;-64
2022/05/20 07:28:21;;;;;;;39.55;32.05;;;20.30;99.90;;;;;;5017063;28;20033;-65
2022/05/20 07:30:47;;;;;;;41.85;33.38;;;20.40;99.90;;;;;;5017082;28;20033;-64
2022/05/20 07:33:13;;;;;;;35.78;29.42;;;20.50;99.90;;;;;;4983933;28;20302;-64
2022/05/20 07:35:39;;;;;;;38.65;31.52;;;20.60;99.90;;;;;;5016263;28;20030;-64
2022/05/20 07:38:07;;;;;;;35.75;29.58;;;20.80;99.90;;;;;;4999870;28;20477;-64
2022/05/20 07:40:33;;;;;;;36.83;28.42;;;21.00;99.90;;;;;;5017013;28;20064;-64
2022/05/20 07:42:58;;;;;;;37.63;30.55;;;21.10;99.90;;;;;;5016987;28;20267;-64
2022/05/20 07:45:25;;;;;;;38.17;30.42;;;21.20;99.90;;;;;;5016104;28;20037;-64
2022/05/20 07:47:50;;;;;;;37.80;29.13;;;21.30;99.90;;;;;;5016885;28;20026;-65
2022/05/20 07:50:16;;;;;;;35.58;29.92;;;21.20;99.90;;;;;;5017011;28;20432;-65
2022/05/20 07:55:36;;;;;;;36.25;30.08;;;21.00;99.90;;;;;;5016891;28;20034;-64
2022/05/20 07:58:05;;;;;;;36.25;29.90;;;21.00;99.90;;;;;;5016699;28;20038;-64
2022/05/20 08:00:32;;;;;;;32.00;28.52;;;21.00;99.90;;;;;;5016608;28;20121;-63
2022/05/20 08:03:01;;;;;;;36.60;29.60;;;21.00;99.90;;;;;;5016768;28;20038;-64
2022/05/20 08:05:29;;;;;;;33.28;29.40;;;21.10;99.90;;;;;;5015960;28;20054;-64
2022/05/20 08:08:02;;;;;;;38.38;29.13;;;21.10;99.90;;;;;;5016785;28;20056;-63
2022/05/20 08:10:30;;;;;;;38.28;31.17;;;21.10;99.90;;;;;;5016771;28;20029;-64
2022/05/20 08:12:59;;;;;;;39.08;31.13;;;20.80;99.90;;;;;;5015919;28;20294;-65
2022/05/20 08:15:26;;;;;;;37.80;29.52;;;20.80;99.90;;;;;;5016571;28;20025;-66
2022/05/20 08:17:52;;;;;;;37.05;29.27;;;20.80;99.90;;;;;;5016514;28;20042;-64
2022/05/20 08:20:25;;;;;;;33.75;28.73;;;21.10;99.90;;;;;;5016617;28;20088;-64
2022/05/20 08:22:56;;;;;;;31.17;27.30;;;21.40;99.90;;;;;;5015943;28;20071;-64
2022/05/20 08:25:24;;;;;;;29.42;25.98;;;21.70;99.90;;;;;;5016649;28;20111;-64
2022/05/20 08:27:51;;;;;;;33.03;27.40;;;21.90;99.90;;;;;;5016566;28;20034;-64
2022/05/20 08:30:23;;;;;;;34.85;26.88;;;22.00;99.90;;;;;;5016570;28;20033;-65
2022/05/20 08:32:50;;;;;;;31.20;26.08;;;22.20;99.90;;;;;;5003119;28;20049;-64
2022/05/20 08:35:15;;;;;;;34.40;27.48;;;22.10;99.90;;;;;;5020006;28;20288;-65
2022/05/20 08:37:43;;;;;;;30.73;25.85;;;21.70;99.90;;;;;;5019966;28;20036;-64
2022/05/20 08:40:18;;;;;;;31.33;25.58;;;21.60;99.90;;;;;;5020033;28;20293;-63
2022/05/20 08:42:44;;;;;;;29.25;23.85;;;21.50;99.90;;;;;;5019161;28;20034;-64
2022/05/20 08:45:12;;;;;;;28.77;23.80;;;21.70;99.90;;;;;;5019148;28;20029;-64
2022/05/20 08:47:42;;;;;;;29.17;22.85;;;22.10;99.90;;;;;;5019025;28;20325;-66
2022/05/20 08:50:13;;;;;;;25.88;21.95;;;22.40;99.90;;;;;;5018936;28;20393;-64
2022/05/20 08:52:40;;;;;;;25.63;22.45;;;22.60;99.90;;;;;;5019796;28;20030;-63
2022/05/20 08:55:06;;;;;;;26.15;22.25;;;23.00;99.90;;;;;;5019638;28;20036;-64
2022/05/20 08:57:33;;;;;;;23.02;20.05;;;22.60;99.90;;;;;;5019799;28;20305;-64
2022/05/20 09:00:01;;;;;;;22.67;20.00;;;22.60;99.90;;;;;;5019365;28;20076;-64
2022/05/20 09:02:27;;;;;;;22.80;19.85;;;22.90;99.90;;;;;;5019544;28;20096;-64
2022/05/20 09:04:52;;;;;;;20.77;18.48;;;23.00;99.90;;;;;;5019064;28;20049;-64
2022/05/20 09:07:20;;;;;;;20.85;17.83;;;22.90;99.90;;;;;;5019776;28;20041;-64
2022/05/20 09:10:01;;;;;;;21.85;17.55;;;23.00;99.90;;;;;;5019403;28;20040;-64
2022/05/20 09:12:33;;;;;;;18.88;16.88;;;23.20;99.90;;;;;;5018813;28;20044;-65
2022/05/20 09:17:46;;;;;;;20.33;17.92;;;22.60;99.90;;;;;;5019358;28;20030;-64
2022/05/20 09:20:16;;;;;;;20.70;17.15;;;22.60;99.90;;;;;;5019241;28;20026;-65
2022/05/20 09:22:54;;;;;;;19.15;16.80;;;22.60;99.90;;;;;;5019201;28;20068;-64
2022/05/20 09:25:23;;;;;;;19.05;17.15;;;22.30;99.90;;;;;;5019219;28;20080;-65
2022/05/20 09:27:51;;;;;;;20.55;17.13;;;22.30;99.90;;;;;;5019080;28;20056;-64
2022/05/20 09:30:23;;;;;;;19.05;16.83;;;22.40;99.90;;;;;;5018982;28;20036;-64
2022/05/20 09:33:11;;;;;;;18.55;15.65;;;22.60;99.90;;;;;;5001811;28;20464;-63
2022/05/20 09:35:37;;;;;;;18.92;16.88;;;22.70;99.90;;;;;;5018960;28;20034;-64
2022/05/20 09:38:31;;;;;;;17.42;15.65;;;23.10;99.90;;;;;;5017988;28;20095;-63
2022/05/20 09:40:57;;;;;;;18.98;15.85;;;23.00;99.90;;;;;;5018791;28;20109;-64
2022/05/20 09:43:35;;;;;;;17.17;15.43;;;22.90;99.90;;;;;;5017787;28;20109;-64
2022/05/20 09:46:03;;;;;;;15.45;13.70;;;22.70;99.90;;;;;;5018714;28;20033;-64
2022/05/20 09:48:50;;;;;;;17.27;15.43;;;22.60;99.90;;;;;;5018047;28;20417;-65
2022/05/20 09:51:19;;;;;;;15.80;14.07;;;22.10;99.90;;;;;;5018979;28;20377;-64
2022/05/20 09:54:09;;;;;;;16.00;14.13;;;21.90;99.90;;;;;;5018565;28;20061;-63
2022/05/20 09:56:40;;;;;;;20.45;15.02;;;22.10;99.90;;;;;;5018743;28;20306;-64
2022/05/20 09:59:35;;;;;;;17.42;13.30;;;22.30;99.90;;;;;;5018221;28;20120;-63
2022/05/20 10:02:06;;;;;;;17.27;13.77;;;22.50;99.90;;;;;;5018669;28;20264;-64
2022/05/20 10:04:45;;;;;;;14.57;13.07;;;22.90;99.90;;;;;;5018403;28;20112;-64
2022/05/20 10:07:15;;;;;;;15.90;13.32;;;23.30;99.90;;;;;;5018185;28;20025;-64
2022/05/20 10:09:56;;;;;;;13.93;12.43;;;23.00;99.90;;;;;;5018297;28;20029;-64
2022/05/20 10:12:31;;;;;;;12.70;11.40;;;23.20;99.90;;;;;;5018229;28;20030;-63
2022/05/20 10:15:24;;;;;;;14.50;11.85;;;23.40;99.90;;;;;;5018514;28;20107;-65
2022/05/20 10:17:58;;;;;;;14.07;11.80;;;23.40;99.90;;;;;;5017481;28;20113;-65
2022/05/20 10:20:54;;;;;;;13.77;12.30;;;23.10;99.90;;;;;;5018326;28;20352;-65
2022/05/20 10:23:36;;;;;;;14.70;12.07;;;22.90;99.90;;;;;;5018063;28;20069;-63
2022/05/20 10:26:41;;;;;;;17.40;11.70;;;22.50;99.90;;;;;;5017915;28;20030;-64
2022/05/20 10:32:35;;;;;;;13.82;11.45;;;22.60;99.90;;;;;;5017916;28;20029;-62
2022/05/20 10:35:14;;;;;;;14.05;11.77;;;22.90;99.90;;;;;;5017859;28;20185;-63
2022/05/20 10:37:52;;;;;;;15.15;12.48;;;22.60;99.90;;;;;;5017893;28;20065;-62
2022/05/20 10:40:36;;;;;;;13.85;11.45;;;22.80;99.90;;;;;;5017668;28;20057;-63
2022/05/20 10:43:23;;;;;;;13.23;11.80;;;22.60;99.90;;;;;;5017694;28;20037;-64
2022/05/20 10:49:12;;;;;;;15.30;12.82;;;22.60;99.90;;;;;;5017591;28;20092;-63
2022/05/20 10:51:51;;;;;;;16.23;12.37;;;22.30;99.90;;;;;;5018056;28;20042;-63
2022/05/20 10:54:48;;;;;;;18.13;12.65;;;21.80;99.90;;;;;;5017453;28;20040;-63
2022/05/20 10:57:32;;;;;;;16.10;13.23;;;21.60;99.90;;;;;;5017491;28;20398;-63
2022/05/20 11:00:19;;;;;;;16.30;13.88;;;21.60;99.90;;;;;;5017139;28;20037;-64
2022/05/20 11:03:09;;;;;;;18.42;13.30;;;21.90;99.90;;;;;;5016706;28;20030;-64
2022/05/20 11:06:12;;;;;;;17.17;13.35;;;22.60;99.90;;;;;;5016832;28;20350;-63
2022/05/20 11:08:51;;;;;;;18.80;14.10;;;23.00;99.90;;;;;;5017567;28;20034;-64
2022/05/20 11:11:34;;;;;;;18.48;14.40;;;22.70;99.90;;;;;;5017252;28;20033;-63
2022/05/20 11:14:19;;;;;;;17.58;14.85;;;22.50;99.90;;;;;;5017122;28;20041;-62
2022/05/20 11:17:03;;;;;;;17.38;15.25;;;21.90;99.90;;;;;;5017412;28;20033;-62
2022/05/20 11:19:40;;;;;;;20.38;15.95;;;21.40;99.90;;;;;;5017265;28;20405;-61
2022/05/20 11:22:25;;;;;;;26.33;19.45;;;20.90;99.90;;;;;;5017158;28;20049;-62
2022/05/20 11:25:28;;;;;;;34.42;24.83;;;20.10;99.90;;;;;;5017115;28;20439;-61
2022/05/20 11:28:19;;;;;;;48.65;33.30;;;19.60;99.90;;;;;;5017029;28;20053;-59
2022/05/20 11:31:14;;;;;;;48.17;33.47;;;19.40;99.90;;;;;;5016961;28;20034;-61
2022/05/20 11:33:43;;;;;;;53.20;38.20;;;19.00;99.90;;;;;;5016968;28;20022;-61
2022/05/20 11:36:38;;;;;;;56.55;40.45;;;18.90;99.90;;;;;;5016915;28;20053;-59
2022/05/20 11:39:33;;;;;;;63.58;43.22;;;18.90;99.90;;;;;;5003776;28;20042;-61
2022/05/20 11:42:33;;;;;;;67.85;45.67;;;19.00;99.90;;;;;;5017297;28;20033;-58
2022/05/20 11:45:16;;;;;;;67.07;46.17;;;19.50;99.90;;;;;;5017296;28;20041;-61
2022/05/20 11:47:44;;;;;;;;;;;19.70;99.90;;;;;;5017401;28;20038;-58
2022/05/20 11:50:18;;;;;;;61.75;42.45;;;19.90;99.90;;;;;;5016875;28;19910;-60
2022/05/20 11:53:09;;;;;;;58.88;41.17;;;19.90;99.90;;;;;;5015996;28;20038;-58
2022/05/20 11:56:00;;;;;;;58.17;41.45;;;19.80;99.90;;;;;;5017025;28;20025;-59
2022/05/20 11:58:40;;;;;;;54.38;40.03;;;20.00;99.90;;;;;;5016047;28;20313;-60
2022/05/20 12:01:08;;;;;;;61.45;43.20;;;20.10;99.90;;;;;;5016585;28;20042;-59
2022/05/20 12:06:24;;;;;;;54.50;39.75;;;20.40;99.90;;;;;;5019289;28;20104;-58
2022/05/20 12:08:53;;;;;;;48.85;37.90;;;20.40;99.90;;;;;;5020527;28;20030;-59
2022/05/20 12:11:27;;;;;;;43.50;35.08;;;20.70;99.90;;;;;;5020407;28;20437;-59
2022/05/20 12:14:16;;;;;;;45.45;34.53;;;20.80;99.90;;;;;;5020249;28;20049;-58
2022/05/20 12:17:03;;;;;;;45.75;33.65;;;20.80;99.90;;;;;;5020656;28;20267;-60
2022/05/20 12:25:36;;;;;;;35.00;28.33;;;22.80;99.90;;;;;;5020778;28;20087;-60
2022/05/20 12:28:20;;;;;;;33.25;26.48;;;23.80;99.90;;;;;;5020158;28;20297;-57
2022/05/20 12:31:09;;;;;;;34.92;26.60;;;24.10;99.90;;;;;;5020342;28;20402;-58
2022/05/20 12:33:53;;;;;;;40.85;30.42;;;23.90;99.90;;;;;;5019646;28;20432;-57
2022/05/20 12:36:28;;;;;;;35.08;27.80;;;24.30;99.90;;;;;;5019937;28;20025;-58
2022/05/20 12:39:06;;;;;;;33.25;28.58;;;23.60;99.90;;;;;;5019851;28;20025;-57
2022/05/20 12:41:56;;;;;;;32.78;26.38;;;22.90;99.90;;;;;;5019214;28;20309;-57
2022/05/20 12:44:22;;;;;;;33.90;23.65;;;23.90;99.90;;;;;;5019737;28;20358;-58
2022/05/20 12:46:59;;;;;;;25.25;21.83;;;24.80;99.90;;;;;;5019904;28;20108;-60
2022/05/20 12:49:31;;;;;;;21.80;19.45;;;24.20;99.90;;;;;;5020282;28;20052;-60
2022/05/20 12:52:17;;;;;;;24.23;19.23;;;23.60;99.90;;;;;;5019972;28;20038;-61
2022/05/20 12:55:23;;;;;;;23.80;19.08;;;22.60;99.90;;;;;;5018840;28;20349;-60
2022/05/20 12:57:54;;;;;;;24.38;19.58;;;21.90;99.90;;;;;;5017347;28;20156;-63
2022/05/20 13:00:32;;;;;;;23.45;19.75;;;21.10;99.90;;;;;;5019607;28;20050;-59
2022/05/20 13:03:06;;;;;;;23.98;17.83;;;20.60;99.90;;;;;;5019681;28;20290;-64
2022/05/20 13:05:36;;;;;;;18.95;14.02;;;20.50;99.90;;;;;;5019605;28;20022;-66
2022/05/20 13:08:15;;;;;;;13.68;10.68;;;20.40;99.90;;;;;;5019501;28;20411;-61
2022/05/20 13:10:41;;;;;;;13.98;9.05;;;20.10;99.90;;;;;;5018758;28;20314;-60
2022/05/20 13:13:20;;;;;;;13.25;8.82;;;19.50;99.90;;;;;;5019353;28;20030;-66
2022/05/20 13:15:49;;;;;;;15.90;10.13;;;19.00;99.90;;;;;;5019292;28;20402;-62
2022/05/20 13:18:33;;;;;;;13.15;9.60;;;18.90;99.90;;;;;;5018500;28;20044;-63
2022/05/20 13:21:06;;;;;;;15.20;10.18;;;18.90;99.90;;;;;;5019171;28;20029;-62
2022/05/20 13:23:36;;;;;;;13.63;10.30;;;18.80;99.90;;;;;;5018581;28;20041;-61
2022/05/20 13:26:02;;;;;;;14.85;10.68;;;18.80;99.90;;;;;;5019068;28;20045;-62
2022/05/20 13:28:36;;;;;;;14.07;10.15;;;18.80;99.90;;;;;;5019107;28;20109;-62
2022/05/20 13:31:12;;;;;;;17.63;12.18;;;18.80;99.90;;;;;;5018423;28;20092;-61
2022/05/20 13:33:42;;;;;;;13.93;10.45;;;18.90;99.90;;;;;;5019069;28;20084;-61